sensor_id;sensor_type;location;lat;lon;timestamp;P1;durP1;ratioP1;P2;durP2;ratioP2
3131;SDS011;62090;52.330;9.104;2023-04-16T00:00:15;44.50;;;35.47;;
3131;SDS011;62090;52.330;9.104;2023-04-16T00:02:45;52.60;;;35.30;;
3131;SDS011;62090;52.330;9.104;2023-04-16T00:05:18;41.20;;;31.53;;
3131;SDS011;62090;52.330;9.104;2023-04-16T00:07:48;46.10;;;32.83;;
3131;SDS011;62090;52.330;9.104;2023-04-16T00:10:18;43.07;;;32.33;;
3131;SDS011;62090;52.330;9.104;2023-04-16T00:12:48;44.30;;;32.17;;
3131;SDS011;62090;52.330;9.104;2023-04-16T00:15:18;43.37;;;31.70;;
3131;SDS011;62090;52.330;9.104;2023-04-16T00:17:48;44.33;;;33.70;;
3131;SDS011;62090;52.330;9.104;2023-04-16T00:20:21;43.70;;;32.27;;
3131;SDS011;62090;52.330;9.104;2023-04-16T00:22:50;45.33;;;30.30;;
3131;SDS011;62090;52.330;9.104;2023-04-16T00:25:20;38.83;;;30.80;;
3131;SDS011;62090;52.330;9.104;2023-04-16T00:27:50;40.63;;;30.80;;
3131;SDS011;62090;52.330;9.104;2023-04-16T00:30:21;40.60;;;31.67;;
3131;SDS011;62090;52.330;9.104;2023-04-16T00:32:51;35.77;;;28.73;;
3131;SDS011;62090;52.330;9.104;2023-04-16T00:35:23;38.80;;;29.60;;
3131;SDS011;62090;52.330;9.104;2023-04-16T00:37:53;43.20;;;31.23;;
3131;SDS011;62090;52.330;9.104;2023-04-16T00:40:25;39.93;;;30.60;;
3131;SDS011;62090;52.330;9.104;2023-04-16T00:42:55;36.83;;;28.33;;
3131;SDS011;62090;52.330;9.104;2023-04-16T00:45:25;40.57;;;31.33;;
3131;SDS011;62090;52.330;9.104;2023-04-16T00:47:55;34.80;;;28.67;;
3131;SDS011;62090;52.330;9.104;2023-04-16T00:50:29;45.80;;;30.40;;
3131;SDS011;62090;52.330;9.104;2023-04-16T00:52:59;41.67;;;29.37;;
3131;SDS011;62090;52.330;9.104;2023-04-16T00:55:30;41.40;;;29.53;;
3131;SDS011;62090;52.330;9.104;2023-04-16T00:57:59;35.90;;;28.07;;
3131;SDS011;62090;52.330;9.104;2023-04-16T01:00:29;38.33;;;29.47;;
3131;SDS011;62090;52.330;9.104;2023-04-16T01:02:59;40.43;;;29.40;;
3131;SDS011;62090;52.330;9.104;2023-04-16T01:05:32;35.07;;;27.47;;
3131;SDS011;62090;52.330;9.104;2023-04-16T01:08:02;40.77;;;29.20;;
3131;SDS011;62090;52.330;9.104;2023-04-16T01:10:32;40.33;;;26.47;;
3131;SDS011;62090;52.330;9.104;2023-04-16T01:13:01;35.50;;;27.00;;
3131;SDS011;62090;52.330;9.104;2023-04-16T01:15:31;38.90;;;26.80;;
3131;SDS011;62090;52.330;9.104;2023-04-16T01:18:01;41.10;;;28.97;;
3131;SDS011;62090;52.330;9.104;2023-04-16T01:20:35;37.03;;;27.30;;
3131;SDS011;62090;52.330;9.104;2023-04-16T01:23:05;33.30;;;25.90;;
3131;SDS011;62090;52.330;9.104;2023-04-16T01:25:35;34.40;;;26.90;;
3131;SDS011;62090;52.330;9.104;2023-04-16T01:28:05;44.87;;;27.53;;
3131;SDS011;62090;52.330;9.104;2023-04-16T01:30:36;37.03;;;24.97;;
3131;SDS011;62090;52.330;9.104;2023-04-16T01:33:26;41.70;;;27.50;;
3131;SDS011;62090;52.330;9.104;2023-04-16T01:35:58;40.73;;;27.50;;
3131;SDS011;62090;52.330;9.104;2023-04-16T01:38:28;35.33;;;27.00;;
3131;SDS011;62090;52.330;9.104;2023-04-16T01:40:58;35.17;;;26.20;;
3131;SDS011;62090;52.330;9.104;2023-04-16T01:43:27;34.87;;;24.97;;
3131;SDS011;62090;52.330;9.104;2023-04-16T01:45:58;36.47;;;26.07;;
3131;SDS011;62090;52.330;9.104;2023-04-16T01:48:41;37.40;;;26.60;;
3131;SDS011;62090;52.330;9.104;2023-04-16T01:51:14;33.97;;;25.03;;
3131;SDS011;62090;52.330;9.104;2023-04-16T01:53:44;37.10;;;24.37;;
3131;SDS011;62090;52.330;9.104;2023-04-16T01:56:13;32.43;;;23.93;;
3131;SDS011;62090;52.330;9.104;2023-04-16T01:58:43;38.63;;;26.17;;
3131;SDS011;62090;52.330;9.104;2023-04-16T02:01:15;34.77;;;25.87;;
3131;SDS011;62090;52.330;9.104;2023-04-16T02:03:46;36.13;;;26.23;;
3131;SDS011;62090;52.330;9.104;2023-04-16T02:06:18;38.47;;;26.90;;
3131;SDS011;62090;52.330;9.104;2023-04-16T02:08:48;36.30;;;27.00;;
3131;SDS011;62090;52.330;9.104;2023-04-16T02:11:19;34.60;;;27.30;;
3131;SDS011;62090;52.330;9.104;2023-04-16T02:13:49;43.30;;;27.27;;
3131;SDS011;62090;52.330;9.104;2023-04-16T02:16:19;38.80;;;25.63;;
3131;SDS011;62090;52.330;9.104;2023-04-16T02:18:58;34.23;;;26.07;;
3131;SDS011;62090;52.330;9.104;2023-04-16T02:21:35;42.50;;;26.47;;
3131;SDS011;62090;52.330;9.104;2023-04-16T02:24:05;33.47;;;24.97;;
3131;SDS011;62090;52.330;9.104;2023-04-16T02:26:35;36.00;;;26.70;;
3131;SDS011;62090;52.330;9.104;2023-04-16T02:29:11;34.50;;;25.63;;
3131;SDS011;62090;52.330;9.104;2023-04-16T02:31:48;34.57;;;26.37;;
3131;SDS011;62090;52.330;9.104;2023-04-16T02:34:18;38.33;;;26.13;;
3131;SDS011;62090;52.330;9.104;2023-04-16T02:36:51;38.53;;;25.37;;
3131;SDS011;62090;52.330;9.104;2023-04-16T02:39:21;35.90;;;25.57;;
3131;SDS011;62090;52.330;9.104;2023-04-16T02:41:51;38.20;;;25.83;;
3131;SDS011;62090;52.330;9.104;2023-04-16T02:44:21;36.87;;;26.80;;
3131;SDS011;62090;52.330;9.104;2023-04-16T02:46:51;37.30;;;26.50;;
3131;SDS011;62090;52.330;9.104;2023-04-16T02:49:21;37.73;;;27.17;;
3131;SDS011;62090;52.330;9.104;2023-04-16T02:51:54;37.83;;;25.83;;
3131;SDS011;62090;52.330;9.104;2023-04-16T02:54:23;38.20;;;25.93;;
3131;SDS011;62090;52.330;9.104;2023-04-16T02:56:53;36.60;;;26.93;;
3131;SDS011;62090;52.330;9.104;2023-04-16T02:59:23;41.33;;;27.13;;
3131;SDS011;62090;52.330;9.104;2023-04-16T03:01:53;38.43;;;26.37;;
3131;SDS011;62090;52.330;9.104;2023-04-16T03:04:23;39.83;;;27.00;;
3131;SDS011;62090;52.330;9.104;2023-04-16T03:06:55;43.23;;;28.40;;
3131;SDS011;62090;52.330;9.104;2023-04-16T03:09:25;42.30;;;26.93;;
3131;SDS011;62090;52.330;9.104;2023-04-16T03:11:55;37.67;;;27.33;;
3131;SDS011;62090;52.330;9.104;2023-04-16T03:14:25;38.10;;;26.73;;
3131;SDS011;62090;52.330;9.104;2023-04-16T03:16:54;42.70;;;27.30;;
3131;SDS011;62090;52.330;9.104;2023-04-16T03:19:24;39.40;;;28.87;;
3131;SDS011;62090;52.330;9.104;2023-04-16T03:21:57;44.50;;;30.90;;
3131;SDS011;62090;52.330;9.104;2023-04-16T03:24:26;38.80;;;28.10;;
3131;SDS011;62090;52.330;9.104;2023-04-16T03:26:56;41.10;;;30.67;;
3131;SDS011;62090;52.330;9.104;2023-04-16T03:29:28;39.47;;;28.00;;
3131;SDS011;62090;52.330;9.104;2023-04-16T03:31:58;38.60;;;27.80;;
3131;SDS011;62090;52.330;9.104;2023-04-16T03:34:27;36.20;;;27.30;;
3131;SDS011;62090;52.330;9.104;2023-04-16T03:37:00;45.00;;;30.40;;
3131;SDS011;62090;52.330;9.104;2023-04-16T03:39:32;38.90;;;28.70;;
3131;SDS011;62090;52.330;9.104;2023-04-16T03:42:02;42.57;;;30.33;;
3131;SDS011;62090;52.330;9.104;2023-04-16T03:44:33;41.33;;;31.30;;
3131;SDS011;62090;52.330;9.104;2023-04-16T03:47:02;40.37;;;29.40;;
3131;SDS011;62090;52.330;9.104;2023-04-16T03:49:33;40.03;;;30.00;;
3131;SDS011;62090;52.330;9.104;2023-04-16T03:52:05;46.23;;;31.83;;
3131;SDS011;62090;52.330;9.104;2023-04-16T03:54:36;45.40;;;32.03;;
3131;SDS011;62090;52.330;9.104;2023-04-16T03:57:18;43.70;;;29.90;;
3131;SDS011;62090;52.330;9.104;2023-04-16T03:59:47;48.73;;;31.67;;
3131;SDS011;62090;52.330;9.104;2023-04-16T04:02:17;41.57;;;29.47;;
3131;SDS011;62090;52.330;9.104;2023-04-16T04:04:47;46.77;;;32.63;;
3131;SDS011;62090;52.330;9.104;2023-04-16T04:07:20;48.50;;;31.57;;
3131;SDS011;62090;52.330;9.104;2023-04-16T04:09:51;46.27;;;31.30;;
3131;SDS011;62090;52.330;9.104;2023-04-16T04:12:20;46.67;;;30.80;;
3131;SDS011;62090;52.330;9.104;2023-04-16T04:14:50;48.23;;;31.90;;
3131;SDS011;62090;52.330;9.104;2023-04-16T04:17:20;48.90;;;32.30;;
3131;SDS011;62090;52.330;9.104;2023-04-16T04:19:50;50.13;;;32.97;;
3131;SDS011;62090;52.330;9.104;2023-04-16T04:22:28;48.27;;;34.50;;
3131;SDS011;62090;52.330;9.104;2023-04-16T04:24:58;47.23;;;33.60;;
3131;SDS011;62090;52.330;9.104;2023-04-16T04:27:30;50.33;;;34.27;;
3131;SDS011;62090;52.330;9.104;2023-04-16T04:30:01;49.40;;;34.93;;
3131;SDS011;62090;52.330;9.104;2023-04-16T04:32:32;47.93;;;33.40;;
3131;SDS011;62090;52.330;9.104;2023-04-16T04:35:02;51.73;;;32.90;;
3131;SDS011;62090;52.330;9.104;2023-04-16T04:37:35;58.40;;;32.80;;
3131;SDS011;62090;52.330;9.104;2023-04-16T04:40:12;45.40;;;33.60;;
3131;SDS011;62090;52.330;9.104;2023-04-16T04:42:42;61.37;;;38.70;;
3131;SDS011;62090;52.330;9.104;2023-04-16T04:45:12;52.07;;;35.73;;
3131;SDS011;62090;52.330;9.104;2023-04-16T04:47:41;53.77;;;36.93;;
3131;SDS011;62090;52.330;9.104;2023-04-16T04:50:11;62.70;;;36.40;;
3131;SDS011;62090;52.330;9.104;2023-04-16T04:52:44;58.00;;;38.07;;
3131;SDS011;62090;52.330;9.104;2023-04-16T04:55:13;57.23;;;37.10;;
3131;SDS011;62090;52.330;9.104;2023-04-16T04:57:43;56.10;;;38.30;;
3131;SDS011;62090;52.330;9.104;2023-04-16T05:00:13;54.70;;;36.40;;
3131;SDS011;62090;52.330;9.104;2023-04-16T05:02:50;59.50;;;38.80;;
3131;SDS011;62090;52.330;9.104;2023-04-16T05:05:20;60.77;;;38.50;;
3131;SDS011;62090;52.330;9.104;2023-04-16T05:07:53;58.13;;;38.50;;
3131;SDS011;62090;52.330;9.104;2023-04-16T05:10:22;61.17;;;34.83;;
3131;SDS011;62090;52.330;9.104;2023-04-16T05:12:52;60.33;;;36.30;;
3131;SDS011;62090;52.330;9.104;2023-04-16T05:15:22;55.40;;;36.10;;
3131;SDS011;62090;52.330;9.104;2023-04-16T05:17:52;54.43;;;36.07;;
3131;SDS011;62090;52.330;9.104;2023-04-16T05:20:22;55.10;;;34.57;;
3131;SDS011;62090;52.330;9.104;2023-04-16T05:22:54;50.07;;;35.93;;
3131;SDS011;62090;52.330;9.104;2023-04-16T05:25:24;59.87;;;37.53;;
3131;SDS011;62090;52.330;9.104;2023-04-16T05:27:54;51.57;;;35.17;;
3131;SDS011;62090;52.330;9.104;2023-04-16T05:30:24;56.17;;;36.50;;
3131;SDS011;62090;52.330;9.104;2023-04-16T05:32:53;57.50;;;36.80;;
3131;SDS011;62090;52.330;9.104;2023-04-16T05:35:23;53.33;;;35.07;;
3131;SDS011;62090;52.330;9.104;2023-04-16T05:37:55;54.77;;;36.13;;
3131;SDS011;62090;52.330;9.104;2023-04-16T05:40:25;54.00;;;35.80;;
3131;SDS011;62090;52.330;9.104;2023-04-16T05:42:55;57.70;;;36.03;;
3131;SDS011;62090;52.330;9.104;2023-04-16T05:45:25;57.87;;;34.50;;
3131;SDS011;62090;52.330;9.104;2023-04-16T05:47:55;64.33;;;37.70;;
3131;SDS011;62090;52.330;9.104;2023-04-16T05:50:24;55.57;;;33.97;;
3131;SDS011;62090;52.330;9.104;2023-04-16T05:52:57;54.77;;;36.20;;
3131;SDS011;62090;52.330;9.104;2023-04-16T05:55:26;55.47;;;34.77;;
3131;SDS011;62090;52.330;9.104;2023-04-16T05:57:56;56.97;;;33.83;;
3131;SDS011;62090;52.330;9.104;2023-04-16T06:00:26;56.87;;;35.77;;
3131;SDS011;62090;52.330;9.104;2023-04-16T06:02:56;56.97;;;34.70;;
3131;SDS011;62090;52.330;9.104;2023-04-16T06:05:26;52.93;;;34.13;;
3131;SDS011;62090;52.330;9.104;2023-04-16T06:07:59;50.97;;;33.03;;
3131;SDS011;62090;52.330;9.104;2023-04-16T06:10:29;52.53;;;34.53;;
3131;SDS011;62090;52.330;9.104;2023-04-16T06:12:59;47.60;;;32.30;;
3131;SDS011;62090;52.330;9.104;2023-04-16T06:15:29;48.00;;;33.03;;
3131;SDS011;62090;52.330;9.104;2023-04-16T06:17:59;47.20;;;31.93;;
3131;SDS011;62090;52.330;9.104;2023-04-16T06:20:29;53.37;;;33.50;;
3131;SDS011;62090;52.330;9.104;2023-04-16T06:23:01;52.10;;;31.80;;
3131;SDS011;62090;52.330;9.104;2023-04-16T06:25:31;47.23;;;31.83;;
3131;SDS011;62090;52.330;9.104;2023-04-16T06:28:01;42.37;;;30.97;;
3131;SDS011;62090;52.330;9.104;2023-04-16T06:30:30;49.10;;;30.33;;
3131;SDS011;62090;52.330;9.104;2023-04-16T06:33:00;42.13;;;32.73;;
3131;SDS011;62090;52.330;9.104;2023-04-16T06:35:30;45.30;;;32.00;;
3131;SDS011;62090;52.330;9.104;2023-04-16T06:38:02;45.17;;;31.13;;
3131;SDS011;62090;52.330;9.104;2023-04-16T06:40:32;53.20;;;32.23;;
3131;SDS011;62090;52.330;9.104;2023-04-16T06:43:03;44.63;;;29.97;;
3131;SDS011;62090;52.330;9.104;2023-04-16T06:45:32;44.70;;;29.40;;
3131;SDS011;62090;52.330;9.104;2023-04-16T06:48:03;43.67;;;29.90;;
3131;SDS011;62090;52.330;9.104;2023-04-16T06:50:33;44.53;;;29.30;;
3131;SDS011;62090;52.330;9.104;2023-04-16T06:53:06;43.93;;;28.60;;
3131;SDS011;62090;52.330;9.104;2023-04-16T06:55:36;39.47;;;29.20;;
3131;SDS011;62090;52.330;9.104;2023-04-16T06:58:05;47.43;;;28.90;;
3131;SDS011;62090;52.330;9.104;2023-04-16T07:00:35;39.33;;;26.33;;
3131;SDS011;62090;52.330;9.104;2023-04-16T07:03:05;35.20;;;27.30;;
3131;SDS011;62090;52.330;9.104;2023-04-16T07:05:35;36.40;;;26.90;;
3131;SDS011;62090;52.330;9.104;2023-04-16T07:08:08;40.10;;;27.30;;
3131;SDS011;62090;52.330;9.104;2023-04-16T07:10:38;38.60;;;25.90;;
3131;SDS011;62090;52.330;9.104;2023-04-16T07:13:08;36.97;;;25.27;;
3131;SDS011;62090;52.330;9.104;2023-04-16T07:15:38;36.57;;;25.57;;
3131;SDS011;62090;52.330;9.104;2023-04-16T07:18:07;38.70;;;24.33;;
3131;SDS011;62090;52.330;9.104;2023-04-16T07:20:37;41.27;;;27.77;;
3131;SDS011;62090;52.330;9.104;2023-04-16T07:23:11;36.43;;;26.53;;
3131;SDS011;62090;52.330;9.104;2023-04-16T07:25:40;37.03;;;26.20;;
3131;SDS011;62090;52.330;9.104;2023-04-16T07:28:11;38.60;;;25.93;;
3131;SDS011;62090;52.330;9.104;2023-04-16T07:30:42;35.87;;;25.40;;
3131;SDS011;62090;52.330;9.104;2023-04-16T07:33:11;39.13;;;27.03;;
3131;SDS011;62090;52.330;9.104;2023-04-16T07:35:41;39.80;;;26.90;;
3131;SDS011;62090;52.330;9.104;2023-04-16T07:38:14;44.57;;;26.30;;
3131;SDS011;62090;52.330;9.104;2023-04-16T07:40:44;41.27;;;26.57;;
3131;SDS011;62090;52.330;9.104;2023-04-16T07:43:14;38.67;;;25.50;;
3131;SDS011;62090;52.330;9.104;2023-04-16T07:45:43;44.90;;;26.07;;
3131;SDS011;62090;52.330;9.104;2023-04-16T07:48:14;37.17;;;26.53;;
3131;SDS011;62090;52.330;9.104;2023-04-16T07:50:43;41.93;;;26.30;;
3131;SDS011;62090;52.330;9.104;2023-04-16T07:53:16;44.10;;;25.73;;
3131;SDS011;62090;52.330;9.104;2023-04-16T07:55:45;41.60;;;26.93;;
3131;SDS011;62090;52.330;9.104;2023-04-16T07:58:15;39.20;;;25.70;;
3131;SDS011;62090;52.330;9.104;2023-04-16T08:00:45;35.60;;;26.40;;
3131;SDS011;62090;52.330;9.104;2023-04-16T08:03:16;32.90;;;23.97;;
3131;SDS011;62090;52.330;9.104;2023-04-16T08:05:46;39.50;;;24.50;;
3131;SDS011;62090;52.330;9.104;2023-04-16T08:08:18;39.47;;;26.27;;
3131;SDS011;62090;52.330;9.104;2023-04-16T08:10:48;37.67;;;25.80;;
3131;SDS011;62090;52.330;9.104;2023-04-16T08:13:21;36.37;;;24.73;;
3131;SDS011;62090;52.330;9.104;2023-04-16T08:15:51;39.40;;;25.40;;
3131;SDS011;62090;52.330;9.104;2023-04-16T08:18:21;32.80;;;24.30;;
3131;SDS011;62090;52.330;9.104;2023-04-16T08:20:51;43.10;;;25.30;;
3131;SDS011;62090;52.330;9.104;2023-04-16T08:23:23;36.93;;;25.47;;
3131;SDS011;62090;52.330;9.104;2023-04-16T08:25:53;33.10;;;23.87;;
3131;SDS011;62090;52.330;9.104;2023-04-16T08:28:23;34.80;;;24.40;;
3131;SDS011;62090;52.330;9.104;2023-04-16T08:30:52;45.13;;;24.00;;
3131;SDS011;62090;52.330;9.104;2023-04-16T08:33:22;35.47;;;24.10;;
3131;SDS011;62090;52.330;9.104;2023-04-16T08:35:52;36.43;;;23.83;;
3131;SDS011;62090;52.330;9.104;2023-04-16T08:38:24;38.50;;;23.10;;
3131;SDS011;62090;52.330;9.104;2023-04-16T08:40:54;34.20;;;23.47;;
3131;SDS011;62090;52.330;9.104;2023-04-16T08:43:27;40.83;;;23.80;;
3131;SDS011;62090;52.330;9.104;2023-04-16T08:46:00;37.70;;;23.60;;
3131;SDS011;62090;52.330;9.104;2023-04-16T08:48:32;37.53;;;24.20;;
3131;SDS011;62090;52.330;9.104;2023-04-16T08:51:02;37.73;;;23.83;;
3131;SDS011;62090;52.330;9.104;2023-04-16T08:53:46;38.33;;;24.67;;
3131;SDS011;62090;52.330;9.104;2023-04-16T08:56:20;32.67;;;23.57;;
3131;SDS011;62090;52.330;9.104;2023-04-16T08:58:53;37.03;;;23.87;;
3131;SDS011;62090;52.330;9.104;2023-04-16T09:01:24;27.93;;;21.33;;
3131;SDS011;62090;52.330;9.104;2023-04-16T09:03:55;36.10;;;22.77;;
3131;SDS011;62090;52.330;9.104;2023-04-16T09:06:27;36.67;;;24.10;;
3131;SDS011;62090;52.330;9.104;2023-04-16T09:09:00;35.20;;;21.60;;
3131;SDS011;62090;52.330;9.104;2023-04-16T09:11:31;31.30;;;21.47;;
3131;SDS011;62090;52.330;9.104;2023-04-16T09:14:01;29.60;;;20.90;;
3131;SDS011;62090;52.330;9.104;2023-04-16T09:16:32;33.23;;;20.60;;
3131;SDS011;62090;52.330;9.104;2023-04-16T09:19:02;33.83;;;21.10;;
3131;SDS011;62090;52.330;9.104;2023-04-16T09:21:33;32.10;;;21.60;;
3131;SDS011;62090;52.330;9.104;2023-04-16T09:24:06;32.10;;;22.87;;
3131;SDS011;62090;52.330;9.104;2023-04-16T09:26:36;32.20;;;21.87;;
3131;SDS011;62090;52.330;9.104;2023-04-16T09:29:06;33.23;;;21.97;;
3131;SDS011;62090;52.330;9.104;2023-04-16T09:31:37;36.90;;;21.40;;
3131;SDS011;62090;52.330;9.104;2023-04-16T09:34:07;27.47;;;20.77;;
3131;SDS011;62090;52.330;9.104;2023-04-16T09:36:37;37.63;;;21.47;;
3131;SDS011;62090;52.330;9.104;2023-04-16T09:39:09;33.37;;;22.00;;
3131;SDS011;62090;52.330;9.104;2023-04-16T09:41:47;29.47;;;20.00;;
3131;SDS011;62090;52.330;9.104;2023-04-16T09:44:18;31.97;;;21.80;;
3131;SDS011;62090;52.330;9.104;2023-04-16T09:46:47;32.67;;;21.87;;
3131;SDS011;62090;52.330;9.104;2023-04-16T09:49:17;32.37;;;21.50;;
3131;SDS011;62090;52.330;9.104;2023-04-16T09:51:47;29.73;;;20.97;;
3131;SDS011;62090;52.330;9.104;2023-04-16T09:54:22;31.13;;;20.83;;
3131;SDS011;62090;52.330;9.104;2023-04-16T09:56:55;32.50;;;21.17;;
3131;SDS011;62090;52.330;9.104;2023-04-16T09:59:26;28.47;;;19.60;;
3131;SDS011;62090;52.330;9.104;2023-04-16T10:01:59;35.57;;;21.00;;
3131;SDS011;62090;52.330;9.104;2023-04-16T10:04:47;28.50;;;19.87;;
3131;SDS011;62090;52.330;9.104;2023-04-16T10:07:18;33.77;;;22.50;;
3131;SDS011;62090;52.330;9.104;2023-04-16T10:09:51;32.83;;;22.43;;
3131;SDS011;62090;52.330;9.104;2023-04-16T10:12:21;30.53;;;21.23;;
3131;SDS011;62090;52.330;9.104;2023-04-16T10:14:51;35.77;;;21.40;;
3131;SDS011;62090;52.330;9.104;2023-04-16T10:17:21;31.53;;;20.60;;
3131;SDS011;62090;52.330;9.104;2023-04-16T10:19:51;28.27;;;19.50;;
3131;SDS011;62090;52.330;9.104;2023-04-16T10:22:22;34.50;;;21.60;;
3131;SDS011;62090;52.330;9.104;2023-04-16T10:24:55;27.73;;;20.33;;
3131;SDS011;62090;52.330;9.104;2023-04-16T10:27:26;28.30;;;21.50;;
3131;SDS011;62090;52.330;9.104;2023-04-16T10:29:56;32.40;;;21.60;;
3131;SDS011;62090;52.330;9.104;2023-04-16T10:32:26;30.30;;;20.17;;
3131;SDS011;62090;52.330;9.104;2023-04-16T10:34:57;29.60;;;19.67;;
3131;SDS011;62090;52.330;9.104;2023-04-16T10:37:30;30.23;;;19.30;;
3131;SDS011;62090;52.330;9.104;2023-04-16T10:40:02;26.93;;;20.37;;
3131;SDS011;62090;52.330;9.104;2023-04-16T10:42:54;31.20;;;21.13;;
3131;SDS011;62090;52.330;9.104;2023-04-16T10:45:30;30.23;;;21.27;;
3131;SDS011;62090;52.330;9.104;2023-04-16T10:48:05;30.47;;;20.37;;
3131;SDS011;62090;52.330;9.104;2023-04-16T10:50:40;32.03;;;20.97;;
3131;SDS011;62090;52.330;9.104;2023-04-16T10:53:18;34.93;;;20.77;;
3131;SDS011;62090;52.330;9.104;2023-04-16T10:56:08;29.47;;;22.00;;
3131;SDS011;62090;52.330;9.104;2023-04-16T10:58:44;30.90;;;20.53;;
3131;SDS011;62090;52.330;9.104;2023-04-16T11:01:15;28.40;;;20.93;;
3131;SDS011;62090;52.330;9.104;2023-04-16T11:03:47;36.03;;;22.83;;
3131;SDS011;62090;52.330;9.104;2023-04-16T11:06:22;32.67;;;21.70;;
3131;SDS011;62090;52.330;9.104;2023-04-16T11:08:54;32.23;;;22.90;;
3131;SDS011;62090;52.330;9.104;2023-04-16T11:11:31;32.70;;;21.83;;
3131;SDS011;62090;52.330;9.104;2023-04-16T11:14:09;34.97;;;22.17;;
3131;SDS011;62090;52.330;9.104;2023-04-16T11:16:40;35.93;;;23.03;;
3131;SDS011;62090;52.330;9.104;2023-04-16T11:19:15;33.80;;;21.57;;
3131;SDS011;62090;52.330;9.104;2023-04-16T11:21:46;36.43;;;22.97;;
3131;SDS011;62090;52.330;9.104;2023-04-16T11:24:17;36.60;;;21.00;;
3131;SDS011;62090;52.330;9.104;2023-04-16T11:26:53;35.43;;;23.07;;
3131;SDS011;62090;52.330;9.104;2023-04-16T11:29:23;32.17;;;23.13;;
3131;SDS011;62090;52.330;9.104;2023-04-16T11:31:54;28.07;;;19.60;;
3131;SDS011;62090;52.330;9.104;2023-04-16T11:34:25;38.90;;;25.00;;
3131;SDS011;62090;52.330;9.104;2023-04-16T11:36:56;46.00;;;26.47;;
3131;SDS011;62090;52.330;9.104;2023-04-16T11:39:26;28.37;;;20.70;;
3131;SDS011;62090;52.330;9.104;2023-04-16T11:42:02;41.00;;;24.80;;
3131;SDS011;62090;52.330;9.104;2023-04-16T11:44:33;32.37;;;21.47;;
3131;SDS011;62090;52.330;9.104;2023-04-16T11:47:04;35.83;;;23.27;;
3131;SDS011;62090;52.330;9.104;2023-04-16T11:49:35;34.23;;;21.73;;
3131;SDS011;62090;52.330;9.104;2023-04-16T11:52:08;33.17;;;23.00;;
3131;SDS011;62090;52.330;9.104;2023-04-16T11:54:39;36.90;;;22.20;;
3131;SDS011;62090;52.330;9.104;2023-04-16T11:57:12;36.20;;;22.07;;
3131;SDS011;62090;52.330;9.104;2023-04-16T11:59:45;33.10;;;22.17;;
3131;SDS011;62090;52.330;9.104;2023-04-16T12:02:41;30.67;;;22.00;;
3131;SDS011;62090;52.330;9.104;2023-04-16T12:05:25;33.67;;;22.13;;
3131;SDS011;62090;52.330;9.104;2023-04-16T12:07:57;38.37;;;22.40;;
3131;SDS011;62090;52.330;9.104;2023-04-16T12:10:30;35.80;;;21.60;;
3131;SDS011;62090;52.330;9.104;2023-04-16T12:13:13;33.43;;;21.97;;
3131;SDS011;62090;52.330;9.104;2023-04-16T12:15:45;36.23;;;21.37;;
3131;SDS011;62090;52.330;9.104;2023-04-16T12:18:19;31.73;;;22.30;;
3131;SDS011;62090;52.330;9.104;2023-04-16T12:20:53;33.43;;;22.20;;
3131;SDS011;62090;52.330;9.104;2023-04-16T12:23:24;36.00;;;22.07;;
3131;SDS011;62090;52.330;9.104;2023-04-16T12:25:56;38.03;;;20.60;;
3131;SDS011;62090;52.330;9.104;2023-04-16T12:28:31;30.47;;;21.83;;
3131;SDS011;62090;52.330;9.104;2023-04-16T12:31:15;37.13;;;21.43;;
3131;SDS011;62090;52.330;9.104;2023-04-16T12:33:59;44.93;;;22.00;;
3131;SDS011;62090;52.330;9.104;2023-04-16T12:36:32;38.50;;;21.57;;
3131;SDS011;62090;52.330;9.104;2023-04-16T12:39:03;34.60;;;22.10;;
3131;SDS011;62090;52.330;9.104;2023-04-16T12:41:34;35.77;;;21.40;;
3131;SDS011;62090;52.330;9.104;2023-04-16T12:44:10;37.10;;;22.07;;
3131;SDS011;62090;52.330;9.104;2023-04-16T12:46:45;34.57;;;23.03;;
3131;SDS011;62090;52.330;9.104;2023-04-16T12:49:15;34.93;;;21.30;;
3131;SDS011;62090;52.330;9.104;2023-04-16T12:51:47;33.30;;;22.30;;
3131;SDS011;62090;52.330;9.104;2023-04-16T12:54:18;32.87;;;22.20;;
3131;SDS011;62090;52.330;9.104;2023-04-16T12:56:50;30.57;;;21.50;;
3131;SDS011;62090;52.330;9.104;2023-04-16T12:59:23;31.50;;;21.07;;
3131;SDS011;62090;52.330;9.104;2023-04-16T13:01:54;35.33;;;20.60;;
3131;SDS011;62090;52.330;9.104;2023-04-16T13:04:26;29.90;;;20.13;;
3131;SDS011;62090;52.330;9.104;2023-04-16T13:06:56;33.70;;;21.87;;
3131;SDS011;62090;52.330;9.104;2023-04-16T13:09:26;31.63;;;20.57;;
3131;SDS011;62090;52.330;9.104;2023-04-16T13:11:56;26.50;;;19.27;;
3131;SDS011;62090;52.330;9.104;2023-04-16T13:14:28;32.93;;;21.20;;
3131;SDS011;62090;52.330;9.104;2023-04-16T13:16:58;30.50;;;19.47;;
3131;SDS011;62090;52.330;9.104;2023-04-16T13:19:29;28.67;;;19.30;;
3131;SDS011;62090;52.330;9.104;2023-04-16T13:22:01;30.93;;;20.17;;
3131;SDS011;62090;52.330;9.104;2023-04-16T13:24:31;30.53;;;19.50;;
3131;SDS011;62090;52.330;9.104;2023-04-16T13:27:01;27.17;;;20.03;;
3131;SDS011;62090;52.330;9.104;2023-04-16T13:29:34;32.23;;;19.70;;
3131;SDS011;62090;52.330;9.104;2023-04-16T13:32:05;29.47;;;20.53;;
3131;SDS011;62090;52.330;9.104;2023-04-16T13:34:35;35.37;;;20.30;;
3131;SDS011;62090;52.330;9.104;2023-04-16T13:37:05;28.57;;;18.83;;
3131;SDS011;62090;52.330;9.104;2023-04-16T13:39:35;26.23;;;18.93;;
3131;SDS011;62090;52.330;9.104;2023-04-16T13:42:04;26.10;;;18.50;;
3131;SDS011;62090;52.330;9.104;2023-04-16T13:44:37;28.97;;;18.50;;
3131;SDS011;62090;52.330;9.104;2023-04-16T13:47:07;29.60;;;19.50;;
3131;SDS011;62090;52.330;9.104;2023-04-16T13:49:37;30.33;;;18.80;;
3131;SDS011;62090;52.330;9.104;2023-04-16T13:52:07;31.80;;;19.57;;
3131;SDS011;62090;52.330;9.104;2023-04-16T13:54:39;28.60;;;19.17;;
3131;SDS011;62090;52.330;9.104;2023-04-16T13:57:17;26.20;;;17.77;;
3131;SDS011;62090;52.330;9.104;2023-04-16T13:59:50;27.17;;;18.20;;
3131;SDS011;62090;52.330;9.104;2023-04-16T14:02:20;28.47;;;17.53;;
3131;SDS011;62090;52.330;9.104;2023-04-16T14:04:51;27.33;;;17.27;;
3131;SDS011;62090;52.330;9.104;2023-04-16T14:07:21;25.73;;;17.10;;
3131;SDS011;62090;52.330;9.104;2023-04-16T14:09:52;26.80;;;17.67;;
3131;SDS011;62090;52.330;9.104;2023-04-16T14:12:22;27.47;;;18.60;;
3131;SDS011;62090;52.330;9.104;2023-04-16T14:14:55;28.20;;;17.40;;
3131;SDS011;62090;52.330;9.104;2023-04-16T14:17:24;28.00;;;18.27;;
3131;SDS011;62090;52.330;9.104;2023-04-16T14:19:54;27.70;;;17.37;;
3131;SDS011;62090;52.330;9.104;2023-04-16T14:22:24;26.40;;;18.23;;
3131;SDS011;62090;52.330;9.104;2023-04-16T14:24:54;23.80;;;16.80;;
3131;SDS011;62090;52.330;9.104;2023-04-16T14:27:24;29.73;;;17.27;;
3131;SDS011;62090;52.330;9.104;2023-04-16T14:29:56;26.53;;;18.23;;
3131;SDS011;62090;52.330;9.104;2023-04-16T14:32:27;25.90;;;17.70;;
3131;SDS011;62090;52.330;9.104;2023-04-16T14:34:56;26.10;;;17.43;;
3131;SDS011;62090;52.330;9.104;2023-04-16T14:37:26;26.57;;;17.07;;
3131;SDS011;62090;52.330;9.104;2023-04-16T14:39:56;31.80;;;19.20;;
3131;SDS011;62090;52.330;9.104;2023-04-16T14:42:26;27.97;;;18.83;;
3131;SDS011;62090;52.330;9.104;2023-04-16T14:44:58;28.43;;;18.57;;
3131;SDS011;62090;52.330;9.104;2023-04-16T14:47:28;32.30;;;17.80;;
3131;SDS011;62090;52.330;9.104;2023-04-16T14:49:58;27.03;;;18.87;;
3131;SDS011;62090;52.330;9.104;2023-04-16T14:52:28;27.13;;;18.07;;
3131;SDS011;62090;52.330;9.104;2023-04-16T14:54:59;23.90;;;16.97;;
3131;SDS011;62090;52.330;9.104;2023-04-16T14:57:29;24.63;;;16.80;;